sensor_id;sensor_type;location;lat;lon;timestamp;P1;durP1;ratioP1;P2;durP2;ratioP2
3050;SDS011;1535;51.098;6.414;2023-10-13T00:02:03;3.30;;;3.30;;
3050;SDS011;1535;51.098;6.414;2023-10-13T00:04:32;3.30;;;3.30;;
3050;SDS011;1535;51.098;6.414;2023-10-13T00:07:01;3.23;;;3.23;;
3050;SDS011;1535;51.098;6.414;2023-10-13T00:09:30;3.13;;;3.13;;
3050;SDS011;1535;51.098;6.414;2023-10-13T00:11:58;3.20;;;3.20;;
3050;SDS011;1535;51.098;6.414;2023-10-13T00:14:25;3.50;;;3.50;;
3050;SDS011;1535;51.098;6.414;2023-10-13T00:17:01;3.20;;;3.20;;
3050;SDS011;1535;51.098;6.414;2023-10-13T00:19:31;3.20;;;3.20;;
3050;SDS011;1535;51.098;6.414;2023-10-13T00:22:10;4.00;;;4.00;;
3050;SDS011;1535;51.098;6.414;2023-10-13T00:24:38;3.67;;;3.67;;
3050;SDS011;1535;51.098;6.414;2023-10-13T00:27:11;3.50;;;3.50;;
3050;SDS011;1535;51.098;6.414;2023-10-13T00:29:54;3.30;;;3.30;;
3050;SDS011;1535;51.098;6.414;2023-10-13T00:32:37;3.40;;;3.40;;
3050;SDS011;1535;51.098;6.414;2023-10-13T00:35:07;3.40;;;3.40;;
3050;SDS011;1535;51.098;6.414;2023-10-13T00:37:39;3.93;;;3.93;;
3050;SDS011;1535;51.098;6.414;2023-10-13T00:40:11;3.10;;;3.10;;
3050;SDS011;1535;51.098;6.414;2023-10-13T00:43:04;3.50;;;3.50;;
3050;SDS011;1535;51.098;6.414;2023-10-13T00:45:46;3.97;;;3.97;;
3050;SDS011;1535;51.098;6.414;2023-10-13T00:48:22;3.50;;;3.50;;
3050;SDS011;1535;51.098;6.414;2023-10-13T00:50:53;3.50;;;3.50;;
3050;SDS011;1535;51.098;6.414;2023-10-13T00:53:22;3.20;;;3.20;;
3050;SDS011;1535;51.098;6.414;2023-10-13T00:55:50;3.60;;;3.60;;
3050;SDS011;1535;51.098;6.414;2023-10-13T00:58:20;3.50;;;3.50;;
3050;SDS011;1535;51.098;6.414;2023-10-13T01:00:48;4.20;;;4.20;;
3050;SDS011;1535;51.098;6.414;2023-10-13T01:03:23;4.30;;;4.30;;
3050;SDS011;1535;51.098;6.414;2023-10-13T01:05:52;4.60;;;4.60;;
3050;SDS011;1535;51.098;6.414;2023-10-13T01:08:30;4.60;;;4.60;;
3050;SDS011;1535;51.098;6.414;2023-10-13T01:11:02;4.60;;;4.60;;
3050;SDS011;1535;51.098;6.414;2023-10-13T01:13:32;4.87;;;4.87;;
3050;SDS011;1535;51.098;6.414;2023-10-13T01:16:01;5.80;;;5.70;;
3050;SDS011;1535;51.098;6.414;2023-10-13T01:18:33;5.67;;;5.57;;
3050;SDS011;1535;51.098;6.414;2023-10-13T01:21:10;6.50;;;6.40;;
3050;SDS011;1535;51.098;6.414;2023-10-13T01:23:42;7.30;;;7.20;;
3050;SDS011;1535;51.098;6.414;2023-10-13T01:26:09;8.40;;;8.30;;
3050;SDS011;1535;51.098;6.414;2023-10-13T01:28:38;8.10;;;8.00;;
3050;SDS011;1535;51.098;6.414;2023-10-13T01:31:10;12.20;;;11.90;;
3050;SDS011;1535;51.098;6.414;2023-10-13T01:33:49;12.47;;;12.07;;
3050;SDS011;1535;51.098;6.414;2023-10-13T01:36:19;11.90;;;11.60;;
3050;SDS011;1535;51.098;6.414;2023-10-13T01:38:49;11.90;;;11.60;;
3050;SDS011;1535;51.098;6.414;2023-10-13T01:41:17;11.50;;;11.20;;
3050;SDS011;1535;51.098;6.414;2023-10-13T01:43:44;11.93;;;11.63;;
3050;SDS011;1535;51.098;6.414;2023-10-13T01:46:10;11.90;;;11.60;;
3050;SDS011;1535;51.098;6.414;2023-10-13T01:48:40;12.00;;;11.70;;
3050;SDS011;1535;51.098;6.414;2023-10-13T01:51:09;11.90;;;11.60;;
3050;SDS011;1535;51.098;6.414;2023-10-13T01:53:37;11.43;;;11.13;;
3050;SDS011;1535;51.098;6.414;2023-10-13T01:56:06;11.50;;;11.20;;
3050;SDS011;1535;51.098;6.414;2023-10-13T01:58:36;11.47;;;11.17;;
3050;SDS011;1535;51.098;6.414;2023-10-13T02:01:06;11.50;;;11.20;;
3050;SDS011;1535;51.098;6.414;2023-10-13T02:03:32;11.43;;;11.13;;
3050;SDS011;1535;51.098;6.414;2023-10-13T02:06:01;12.10;;;11.80;;
3050;SDS011;1535;51.098;6.414;2023-10-13T02:08:29;11.00;;;10.70;;
3050;SDS011;1535;51.098;6.414;2023-10-13T02:10:57;10.50;;;10.30;;
3050;SDS011;1535;51.098;6.414;2023-10-13T02:13:25;9.90;;;9.70;;
3050;SDS011;1535;51.098;6.414;2023-10-13T02:15:54;11.03;;;10.73;;
3050;SDS011;1535;51.098;6.414;2023-10-13T02:18:21;11.20;;;10.90;;
3050;SDS011;1535;51.098;6.414;2023-10-13T02:20:52;11.30;;;11.00;;
3050;SDS011;1535;51.098;6.414;2023-10-13T02:23:22;11.10;;;10.80;;
3050;SDS011;1535;51.098;6.414;2023-10-13T02:25:50;10.00;;;9.80;;
3050;SDS011;1535;51.098;6.414;2023-10-13T02:28:26;10.33;;;10.13;;
3050;SDS011;1535;51.098;6.414;2023-10-13T02:31:01;10.03;;;9.83;;
3050;SDS011;1535;51.098;6.414;2023-10-13T02:33:28;9.77;;;9.57;;
3050;SDS011;1535;51.098;6.414;2023-10-13T02:35:56;10.07;;;9.87;;
3050;SDS011;1535;51.098;6.414;2023-10-13T02:38:22;9.40;;;9.20;;
3050;SDS011;1535;51.098;6.414;2023-10-13T02:40:53;10.47;;;10.27;;
3050;SDS011;1535;51.098;6.414;2023-10-13T02:43:20;9.60;;;9.40;;
3050;SDS011;1535;51.098;6.414;2023-10-13T02:45:55;10.17;;;9.97;;
3050;SDS011;1535;51.098;6.414;2023-10-13T02:48:24;10.43;;;10.23;;
3050;SDS011;1535;51.098;6.414;2023-10-13T02:50:56;10.00;;;9.80;;
3050;SDS011;1535;51.098;6.414;2023-10-13T02:53:26;11.00;;;10.70;;
3050;SDS011;1535;51.098;6.414;2023-10-13T02:55:55;11.27;;;10.97;;
3050;SDS011;1535;51.098;6.414;2023-10-13T02:58:23;10.17;;;9.97;;
3050;SDS011;1535;51.098;6.414;2023-10-13T03:01:04;10.80;;;10.50;;
3050;SDS011;1535;51.098;6.414;2023-10-13T03:03:42;10.43;;;10.23;;
3050;SDS011;1535;51.098;6.414;2023-10-13T03:06:19;9.93;;;9.73;;
3050;SDS011;1535;51.098;6.414;2023-10-13T03:08:49;10.00;;;9.80;;
3050;SDS011;1535;51.098;6.414;2023-10-13T03:11:16;10.47;;;10.27;;
3050;SDS011;1535;51.098;6.414;2023-10-13T03:13:47;10.10;;;9.90;;
3050;SDS011;1535;51.098;6.414;2023-10-13T03:16:19;10.40;;;10.20;;
3050;SDS011;1535;51.098;6.414;2023-10-13T03:18:46;10.40;;;10.20;;
3050;SDS011;1535;51.098;6.414;2023-10-13T03:21:21;10.40;;;10.20;;
3050;SDS011;1535;51.098;6.414;2023-10-13T03:23:58;10.40;;;10.20;;
3050;SDS011;1535;51.098;6.414;2023-10-13T03:26:29;10.53;;;10.33;;
3050;SDS011;1535;51.098;6.414;2023-10-13T03:29:00;10.43;;;10.23;;
3050;SDS011;1535;51.098;6.414;2023-10-13T03:31:29;10.60;;;10.40;;
3050;SDS011;1535;51.098;6.414;2023-10-13T03:34:04;10.40;;;10.20;;
3050;SDS011;1535;51.098;6.414;2023-10-13T03:36:35;10.50;;;10.30;;
3050;SDS011;1535;51.098;6.414;2023-10-13T03:39:17;11.40;;;11.10;;
3050;SDS011;1535;51.098;6.414;2023-10-13T03:41:48;10.80;;;10.50;;
3050;SDS011;1535;51.098;6.414;2023-10-13T03:44:18;11.00;;;10.70;;
3050;SDS011;1535;51.098;6.414;2023-10-13T03:46:47;11.10;;;10.80;;
3050;SDS011;1535;51.098;6.414;2023-10-13T03:49:15;11.27;;;10.97;;
3050;SDS011;1535;51.098;6.414;2023-10-13T03:51:46;11.40;;;11.10;;
3050;SDS011;1535;51.098;6.414;2023-10-13T03:54:14;10.90;;;10.60;;
3050;SDS011;1535;51.098;6.414;2023-10-13T03:56:41;10.80;;;10.50;;
3050;SDS011;1535;51.098;6.414;2023-10-13T03:59:10;10.90;;;10.60;;
3050;SDS011;1535;51.098;6.414;2023-10-13T04:01:45;10.30;;;10.10;;
3050;SDS011;1535;51.098;6.414;2023-10-13T04:04:23;10.20;;;10.00;;
3050;SDS011;1535;51.098;6.414;2023-10-13T04:06:59;11.10;;;10.80;;
3050;SDS011;1535;51.098;6.414;2023-10-13T04:09:45;11.60;;;11.30;;
3050;SDS011;1535;51.098;6.414;2023-10-13T04:12:31;12.67;;;12.27;;
3050;SDS011;1535;51.098;6.414;2023-10-13T04:15:17;10.87;;;10.57;;
3050;SDS011;1535;51.098;6.414;2023-10-13T04:17:49;9.97;;;9.77;;
3050;SDS011;1535;51.098;6.414;2023-10-13T04:20:16;10.20;;;10.00;;
3050;SDS011;1535;51.098;6.414;2023-10-13T04:22:58;10.00;;;9.80;;
3050;SDS011;1535;51.098;6.414;2023-10-13T04:25:43;10.40;;;10.20;;
3050;SDS011;1535;51.098;6.414;2023-10-13T04:28:28;10.30;;;10.10;;
3050;SDS011;1535;51.098;6.414;2023-10-13T04:31:02;10.70;;;10.40;;
3050;SDS011;1535;51.098;6.414;2023-10-13T04:33:50;11.23;;;10.93;;
3050;SDS011;1535;51.098;6.414;2023-10-13T04:36:19;11.50;;;11.20;;
3050;SDS011;1535;51.098;6.414;2023-10-13T04:39:02;11.40;;;11.10;;
3050;SDS011;1535;51.098;6.414;2023-10-13T04:41:35;11.10;;;10.80;;
3050;SDS011;1535;51.098;6.414;2023-10-13T04:44:04;11.57;;;11.27;;
3050;SDS011;1535;51.098;6.414;2023-10-13T04:46:51;11.37;;;11.07;;
3050;SDS011;1535;51.098;6.414;2023-10-13T04:49:38;10.80;;;10.50;;
3050;SDS011;1535;51.098;6.414;2023-10-13T04:52:17;10.33;;;10.13;;
3050;SDS011;1535;51.098;6.414;2023-10-13T04:55:03;11.20;;;10.90;;
3050;SDS011;1535;51.098;6.414;2023-10-13T04:57:49;10.60;;;10.40;;
3050;SDS011;1535;51.098;6.414;2023-10-13T05:00:25;10.73;;;10.50;;
3050;SDS011;1535;51.098;6.414;2023-10-13T05:03:25;10.77;;;10.50;;
3050;SDS011;1535;51.098;6.414;2023-10-13T05:06:34;10.13;;;9.93;;
3050;SDS011;1535;51.098;6.414;2023-10-13T05:09:19;10.37;;;10.17;;
3050;SDS011;1535;51.098;6.414;2023-10-13T05:12:04;10.10;;;9.90;;
3050;SDS011;1535;51.098;6.414;2023-10-13T05:14:48;10.90;;;10.60;;
3050;SDS011;1535;51.098;6.414;2023-10-13T05:17:33;10.03;;;9.83;;
3050;SDS011;1535;51.098;6.414;2023-10-13T05:20:17;9.50;;;9.30;;
3050;SDS011;1535;51.098;6.414;2023-10-13T05:23:03;10.23;;;10.03;;
3050;SDS011;1535;51.098;6.414;2023-10-13T05:25:48;9.37;;;9.17;;
3050;SDS011;1535;51.098;6.414;2023-10-13T05:28:33;9.30;;;9.10;;
3050;SDS011;1535;51.098;6.414;2023-10-13T05:31:18;10.10;;;9.90;;
3050;SDS011;1535;51.098;6.414;2023-10-13T05:34:03;9.20;;;9.00;;
3050;SDS011;1535;51.098;6.414;2023-10-13T05:36:47;8.50;;;8.40;;
3050;SDS011;1535;51.098;6.414;2023-10-13T05:39:32;8.03;;;7.93;;
3050;SDS011;1535;51.098;6.414;2023-10-13T05:42:16;8.37;;;8.27;;
3050;SDS011;1535;51.098;6.414;2023-10-13T05:45:01;8.67;;;8.57;;
3050;SDS011;1535;51.098;6.414;2023-10-13T05:47:47;8.10;;;8.00;;
3050;SDS011;1535;51.098;6.414;2023-10-13T05:50:26;8.43;;;8.33;;
3050;SDS011;1535;51.098;6.414;2023-10-13T05:53:14;8.40;;;8.30;;
3050;SDS011;1535;51.098;6.414;2023-10-13T05:56:03;8.50;;;8.40;;
3050;SDS011;1535;51.098;6.414;2023-10-13T05:58:47;8.70;;;8.60;;
3050;SDS011;1535;51.098;6.414;2023-10-13T06:01:32;8.13;;;8.03;;
3050;SDS011;1535;51.098;6.414;2023-10-13T06:04:16;8.40;;;8.30;;
3050;SDS011;1535;51.098;6.414;2023-10-13T06:07:01;8.33;;;8.23;;
3050;SDS011;1535;51.098;6.414;2023-10-13T06:09:45;8.90;;;8.80;;
3050;SDS011;1535;51.098;6.414;2023-10-13T06:12:30;8.23;;;8.13;;
3050;SDS011;1535;51.098;6.414;2023-10-13T06:15:15;8.40;;;8.30;;
3050;SDS011;1535;51.098;6.414;2023-10-13T06:17:59;8.30;;;8.20;;
3050;SDS011;1535;51.098;6.414;2023-10-13T06:20:44;8.70;;;8.60;;
3050;SDS011;1535;51.098;6.414;2023-10-13T06:23:28;8.03;;;7.93;;
3050;SDS011;1535;51.098;6.414;2023-10-13T06:26:13;8.10;;;8.00;;
3050;SDS011;1535;51.098;6.414;2023-10-13T06:28:59;7.80;;;7.70;;
3050;SDS011;1535;51.098;6.414;2023-10-13T06:31:28;8.10;;;8.00;;
3050;SDS011;1535;51.098;6.414;2023-10-13T06:33:55;9.20;;;9.00;;
3050;SDS011;1535;51.098;6.414;2023-10-13T06:36:23;9.03;;;8.83;;
3050;SDS011;1535;51.098;6.414;2023-10-13T06:38:50;9.40;;;9.20;;
3050;SDS011;1535;51.098;6.414;2023-10-13T06:41:44;9.40;;;9.20;;
3050;SDS011;1535;51.098;6.414;2023-10-13T06:44:12;9.50;;;9.30;;
3050;SDS011;1535;51.098;6.414;2023-10-13T06:46:41;9.60;;;9.40;;
3050;SDS011;1535;51.098;6.414;2023-10-13T06:49:08;9.93;;;9.73;;
3050;SDS011;1535;51.098;6.414;2023-10-13T06:51:38;9.97;;;9.77;;
3050;SDS011;1535;51.098;6.414;2023-10-13T06:54:05;10.33;;;10.13;;
3050;SDS011;1535;51.098;6.414;2023-10-13T06:56:44;10.53;;;10.33;;
3050;SDS011;1535;51.098;6.414;2023-10-13T06:59:13;10.37;;;10.17;;
3050;SDS011;1535;51.098;6.414;2023-10-13T07:01:41;10.47;;;10.27;;
3050;SDS011;1535;51.098;6.414;2023-10-13T07:04:10;10.50;;;10.30;;
3050;SDS011;1535;51.098;6.414;2023-10-13T07:06:39;10.90;;;10.60;;
3050;SDS011;1535;51.098;6.414;2023-10-13T07:09:09;10.90;;;10.60;;
3050;SDS011;1535;51.098;6.414;2023-10-13T07:11:54;11.13;;;10.83;;
3050;SDS011;1535;51.098;6.414;2023-10-13T07:14:27;11.20;;;10.90;;
3050;SDS011;1535;51.098;6.414;2023-10-13T07:16:59;10.90;;;10.60;;
3050;SDS011;1535;51.098;6.414;2023-10-13T07:19:29;10.30;;;10.10;;
3050;SDS011;1535;51.098;6.414;2023-10-13T07:21:58;10.30;;;10.10;;
3050;SDS011;1535;51.098;6.414;2023-10-13T07:24:44;10.70;;;10.40;;
3050;SDS011;1535;51.098;6.414;2023-10-13T07:27:14;11.10;;;10.80;;
3050;SDS011;1535;51.098;6.414;2023-10-13T07:29:49;10.97;;;10.67;;
3050;SDS011;1535;51.098;6.414;2023-10-13T07:32:31;10.20;;;10.00;;
3050;SDS011;1535;51.098;6.414;2023-10-13T07:34:59;11.17;;;10.87;;
3050;SDS011;1535;51.098;6.414;2023-10-13T07:37:33;11.10;;;10.80;;
3050;SDS011;1535;51.098;6.414;2023-10-13T07:40:00;11.27;;;10.97;;
3050;SDS011;1535;51.098;6.414;2023-10-13T07:42:34;11.20;;;10.90;;
3050;SDS011;1535;51.098;6.414;2023-10-13T07:45:10;11.30;;;11.00;;
3050;SDS011;1535;51.098;6.414;2023-10-13T07:47:38;10.93;;;10.63;;
3050;SDS011;1535;51.098;6.414;2023-10-13T07:50:07;11.47;;;11.17;;
3050;SDS011;1535;51.098;6.414;2023-10-13T07:52:34;11.50;;;11.20;;
3050;SDS011;1535;51.098;6.414;2023-10-13T07:55:19;11.33;;;11.03;;
3050;SDS011;1535;51.098;6.414;2023-10-13T07:57:46;11.30;;;11.00;;
3050;SDS011;1535;51.098;6.414;2023-10-13T08:00:21;11.30;;;11.00;;
3050;SDS011;1535;51.098;6.414;2023-10-13T08:02:58;11.07;;;10.77;;
3050;SDS011;1535;51.098;6.414;2023-10-13T08:05:35;11.10;;;10.80;;
3050;SDS011;1535;51.098;6.414;2023-10-13T08:08:21;10.97;;;10.67;;
3050;SDS011;1535;51.098;6.414;2023-10-13T08:10:51;10.60;;;10.30;;
3050;SDS011;1535;51.098;6.414;2023-10-13T08:13:21;10.53;;;10.23;;
3050;SDS011;1535;51.098;6.414;2023-10-13T08:15:50;10.53;;;10.27;;
3050;SDS011;1535;51.098;6.414;2023-10-13T08:18:18;10.60;;;10.30;;
3050;SDS011;1535;51.098;6.414;2023-10-13T08:20:55;10.80;;;10.50;;
3050;SDS011;1535;51.098;6.414;2023-10-13T08:23:28;10.93;;;10.63;;
3050;SDS011;1535;51.098;6.414;2023-10-13T08:26:20;11.30;;;11.00;;
3050;SDS011;1535;51.098;6.414;2023-10-13T08:29:22;11.30;;;11.00;;
3050;SDS011;1535;51.098;6.414;2023-10-13T08:32:13;12.00;;;11.60;;
3050;SDS011;1535;51.098;6.414;2023-10-13T08:34:46;12.30;;;11.90;;
3050;SDS011;1535;51.098;6.414;2023-10-13T08:37:31;12.40;;;12.00;;
3050;SDS011;1535;51.098;6.414;2023-10-13T08:40:11;12.80;;;12.40;;
3050;SDS011;1535;51.098;6.414;2023-10-13T08:43:09;12.50;;;12.10;;
3050;SDS011;1535;51.098;6.414;2023-10-13T08:45:37;11.90;;;11.60;;
3050;SDS011;1535;51.098;6.414;2023-10-13T08:48:25;11.33;;;11.03;;
3050;SDS011;1535;51.098;6.414;2023-10-13T08:50:57;11.70;;;11.40;;
3050;SDS011;1535;51.098;6.414;2023-10-13T08:53:34;12.00;;;11.70;;
3050;SDS011;1535;51.098;6.414;2023-10-13T08:56:09;11.60;;;11.30;;
3050;SDS011;1535;51.098;6.414;2023-10-13T08:58:43;12.23;;;11.93;;
3050;SDS011;1535;51.098;6.414;2023-10-13T09:01:31;12.90;;;12.50;;
3050;SDS011;1535;51.098;6.414;2023-10-13T09:04:05;12.70;;;12.30;;
3050;SDS011;1535;51.098;6.414;2023-10-13T09:06:47;12.80;;;12.40;;
3050;SDS011;1535;51.098;6.414;2023-10-13T09:09:33;12.80;;;12.40;;
3050;SDS011;1535;51.098;6.414;2023-10-13T09:12:24;13.10;;;12.70;;
3050;SDS011;1535;51.098;6.414;2023-10-13T09:15:02;13.77;;;13.30;;
3050;SDS011;1535;51.098;6.414;2023-10-13T09:17:32;13.20;;;12.80;;
3050;SDS011;1535;51.098;6.414;2023-10-13T09:20:09;13.40;;;13.00;;
3050;SDS011;1535;51.098;6.414;2023-10-13T09:22:56;13.80;;;13.30;;
3050;SDS011;1535;51.098;6.414;2023-10-13T09:25:33;13.80;;;13.30;;
3050;SDS011;1535;51.098;6.414;2023-10-13T09:28:01;14.17;;;13.67;;
3050;SDS011;1535;51.098;6.414;2023-10-13T09:30:41;13.97;;;13.47;;
3050;SDS011;1535;51.098;6.414;2023-10-13T09:33:09;14.10;;;13.60;;
3050;SDS011;1535;51.098;6.414;2023-10-13T09:35:43;14.33;;;13.83;;
3050;SDS011;1535;51.098;6.414;2023-10-13T09:38:14;14.10;;;13.60;;
3050;SDS011;1535;51.098;6.414;2023-10-13T09:40:40;14.10;;;13.60;;
3050;SDS011;1535;51.098;6.414;2023-10-13T09:43:11;14.40;;;13.90;;
3050;SDS011;1535;51.098;6.414;2023-10-13T09:45:43;14.33;;;13.83;;
3050;SDS011;1535;51.098;6.414;2023-10-13T09:48:27;14.40;;;13.90;;
3050;SDS011;1535;51.098;6.414;2023-10-13T09:50:58;14.10;;;13.60;;
3050;SDS011;1535;51.098;6.414;2023-10-13T09:53:28;14.57;;;14.07;;
3050;SDS011;1535;51.098;6.414;2023-10-13T09:55:58;13.53;;;13.13;;
3050;SDS011;1535;51.098;6.414;2023-10-13T09:58:39;14.20;;;13.70;;
3050;SDS011;1535;51.098;6.414;2023-10-13T10:01:16;14.33;;;13.83;;
3050;SDS011;1535;51.098;6.414;2023-10-13T10:03:47;14.13;;;13.63;;
3050;SDS011;1535;51.098;6.414;2023-10-13T10:06:22;14.53;;;14.03;;
3050;SDS011;1535;51.098;6.414;2023-10-13T10:09:03;14.47;;;13.97;;
3050;SDS011;1535;51.098;6.414;2023-10-13T10:11:48;14.40;;;13.90;;
3050;SDS011;1535;51.098;6.414;2023-10-13T10:14:29;14.70;;;14.20;;
3050;SDS011;1535;51.098;6.414;2023-10-13T10:17:20;14.57;;;14.07;;
3050;SDS011;1535;51.098;6.414;2023-10-13T10:19:48;14.80;;;14.30;;
3050;SDS011;1535;51.098;6.414;2023-10-13T10:22:29;14.50;;;14.00;;
3050;SDS011;1535;51.098;6.414;2023-10-13T10:25:00;14.87;;;14.30;;
3050;SDS011;1535;51.098;6.414;2023-10-13T10:27:32;14.20;;;13.70;;
3050;SDS011;1535;51.098;6.414;2023-10-13T10:29:59;14.53;;;14.03;;
3050;SDS011;1535;51.098;6.414;2023-10-13T10:32:32;14.57;;;14.07;;
3050;SDS011;1535;51.098;6.414;2023-10-13T10:35:05;14.10;;;13.60;;
3050;SDS011;1535;51.098;6.414;2023-10-13T10:37:41;14.10;;;13.60;;
3050;SDS011;1535;51.098;6.414;2023-10-13T10:40:12;13.80;;;13.40;;
3050;SDS011;1535;51.098;6.414;2023-10-13T10:42:58;14.40;;;13.90;;
3050;SDS011;1535;51.098;6.414;2023-10-13T10:45:26;14.67;;;14.17;;
3050;SDS011;1535;51.098;6.414;2023-10-13T10:47:57;14.50;;;14.00;;
3050;SDS011;1535;51.098;6.414;2023-10-13T10:50:26;15.83;;;15.23;;
3050;SDS011;1535;51.098;6.414;2023-10-13T10:53:02;14.83;;;14.33;;
3050;SDS011;1535;51.098;6.414;2023-10-13T10:55:34;14.60;;;14.10;;
3050;SDS011;1535;51.098;6.414;2023-10-13T10:58:02;15.33;;;14.73;;
3050;SDS011;1535;51.098;6.414;2023-10-13T11:00:31;14.90;;;14.40;;
3050;SDS011;1535;51.098;6.414;2023-10-13T11:03:11;14.80;;;14.30;;
3050;SDS011;1535;51.098;6.414;2023-10-13T11:05:44;14.47;;;13.97;;
3050;SDS011;1535;51.098;6.414;2023-10-13T11:08:23;14.83;;;14.33;;
3050;SDS011;1535;51.098;6.414;2023-10-13T11:10:57;14.50;;;14.00;;
3050;SDS011;1535;51.098;6.414;2023-10-13T11:13:25;14.40;;;13.90;;
3050;SDS011;1535;51.098;6.414;2023-10-13T11:15:57;14.20;;;13.70;;
3050;SDS011;1535;51.098;6.414;2023-10-13T11:18:29;14.70;;;14.20;;
3050;SDS011;1535;51.098;6.414;2023-10-13T11:20:59;14.80;;;14.30;;
3050;SDS011;1535;51.098;6.414;2023-10-13T11:23:32;14.47;;;13.97;;
3050;SDS011;1535;51.098;6.414;2023-10-13T11:26:01;14.60;;;14.10;;
3050;SDS011;1535;51.098;6.414;2023-10-13T11:28:29;14.37;;;13.87;;
3050;SDS011;1535;51.098;6.414;2023-10-13T11:30:59;14.40;;;13.90;;
3050;SDS011;1535;51.098;6.414;2023-10-13T11:33:35;14.77;;;14.27;;
3050;SDS011;1535;51.098;6.414;2023-10-13T11:36:12;14.80;;;14.30;;
3050;SDS011;1535;51.098;6.414;2023-10-13T11:38:43;14.40;;;13.90;;
3050;SDS011;1535;51.098;6.414;2023-10-13T11:41:15;14.43;;;13.93;;
3050;SDS011;1535;51.098;6.414;2023-10-13T11:43:41;14.90;;;14.40;;
3050;SDS011;1535;51.098;6.414;2023-10-13T11:46:32;15.00;;;14.50;;
3050;SDS011;1535;51.098;6.414;2023-10-13T11:49:17;14.60;;;14.10;;
3050;SDS011;1535;51.098;6.414;2023-10-13T11:51:46;14.50;;;14.00;;
3050;SDS011;1535;51.098;6.414;2023-10-13T11:54:16;14.47;;;13.97;;
3050;SDS011;1535;51.098;6.414;2023-10-13T11:56:43;14.43;;;13.93;;
3050;SDS011;1535;51.098;6.414;2023-10-13T11:59:11;14.30;;;13.80;;
3050;SDS011;1535;51.098;6.414;2023-10-13T12:01:43;14.97;;;14.47;;
3050;SDS011;1535;51.098;6.414;2023-10-13T12:04:27;14.50;;;14.00;;
3050;SDS011;1535;51.098;6.414;2023-10-13T12:06:58;14.50;;;14.00;;
3050;SDS011;1535;51.098;6.414;2023-10-13T12:09:40;14.40;;;13.90;;
3050;SDS011;1535;51.098;6.414;2023-10-13T12:12:17;14.80;;;14.30;;
3050;SDS011;1535;51.098;6.414;2023-10-13T12:14:44;14.50;;;14.00;;
3050;SDS011;1535;51.098;6.414;2023-10-13T12:17:20;14.10;;;13.60;;
3050;SDS011;1535;51.098;6.414;2023-10-13T12:19:52;14.30;;;13.80;;
3050;SDS011;1535;51.098;6.414;2023-10-13T12:22:20;14.50;;;14.00;;
3050;SDS011;1535;51.098;6.414;2023-10-13T12:24:54;14.27;;;13.77;;
3050;SDS011;1535;51.098;6.414;2023-10-13T12:27:22;14.30;;;13.80;;
3050;SDS011;1535;51.098;6.414;2023-10-13T12:29:59;14.30;;;13.80;;
3050;SDS011;1535;51.098;6.414;2023-10-13T12:32:33;14.13;;;13.63;;
3050;SDS011;1535;51.098;6.414;2023-10-13T12:35:00;14.63;;;14.13;;
3050;SDS011;1535;51.098;6.414;2023-10-13T12:37:55;14.50;;;14.00;;
3050;SDS011;1535;51.098;6.414;2023-10-13T12:40:31;14.57;;;14.07;;
3050;SDS011;1535;51.098;6.414;2023-10-13T12:43:16;14.20;;;13.70;;
3050;SDS011;1535;51.098;6.414;2023-10-13T12:46:02;14.30;;;13.80;;
3050;SDS011;1535;51.098;6.414;2023-10-13T12:48:46;14.77;;;14.27;;
3050;SDS011;1535;51.098;6.414;2023-10-13T12:51:29;14.90;;;14.40;;
3050;SDS011;1535;51.098;6.414;2023-10-13T12:54:18;14.80;;;14.30;;
3050;SDS011;1535;51.098;6.414;2023-10-13T12:56:53;14.40;;;13.90;;
3050;SDS011;1535;51.098;6.414;2023-10-13T12:59:22;14.30;;;13.80;;
3050;SDS011;1535;51.098;6.414;2023-10-13T13:01:51;14.47;;;13.97;;
3050;SDS011;1535;51.098;6.414;2023-10-13T13:04:19;14.57;;;14.07;;
3050;SDS011;1535;51.098;6.414;2023-10-13T13:06:46;14.83;;;14.33;;
3050;SDS011;1535;51.098;6.414;2023-10-13T13:09:14;14.60;;;14.10;;
3050;SDS011;1535;51.098;6.414;2023-10-13T13:11:42;14.50;;;14.00;;
3050;SDS011;1535;51.098;6.414;2023-10-13T13:14:13;14.57;;;14.07;;
3050;SDS011;1535;51.098;6.414;2023-10-13T13:16:40;14.40;;;13.90;;
3050;SDS011;1535;51.098;6.414;2023-10-13T13:19:13;14.40;;;13.90;;
3050;SDS011;1535;51.098;6.414;2023-10-13T13:21:49;15.50;;;14.90;;
3050;SDS011;1535;51.098;6.414;2023-10-13T13:24:17;15.17;;;14.67;;
3050;SDS011;1535;51.098;6.414;2023-10-13T13:26:49;15.73;;;15.13;;
3050;SDS011;1535;51.098;6.414;2023-10-13T13:29:19;15.20;;;14.70;;
3050;SDS011;1535;51.098;6.414;2023-10-13T13:31:46;15.10;;;14.60;;
3050;SDS011;1535;51.098;6.414;2023-10-13T13:34:13;15.00;;;14.50;;
3050;SDS011;1535;51.098;6.414;2023-10-13T13:36:40;15.43;;;14.83;;
3050;SDS011;1535;51.098;6.414;2023-10-13T13:39:09;15.10;;;14.60;;
3050;SDS011;1535;51.098;6.414;2023-10-13T13:41:36;14.90;;;14.40;;
3050;SDS011;1535;51.098;6.414;2023-10-13T13:44:04;14.93;;;14.43;;
3050;SDS011;1535;51.098;6.414;2023-10-13T13:46:39;15.00;;;14.50;;
3050;SDS011;1535;51.098;6.414;2023-10-13T13:49:07;14.93;;;14.43;;
3050;SDS011;1535;51.098;6.414;2023-10-13T13:51:44;15.03;;;14.53;;
3050;SDS011;1535;51.098;6.414;2023-10-13T13:54:17;14.67;;;14.17;;
3050;SDS011;1535;51.098;6.414;2023-10-13T13:56:46;14.50;;;14.00;;
3050;SDS011;1535;51.098;6.414;2023-10-13T13:59:14;14.40;;;13.90;;
3050;SDS011;1535;51.098;6.414;2023-10-13T14:01:45;14.50;;;14.00;;
3050;SDS011;1535;51.098;6.414;2023-10-13T14:04:12;14.50;;;14.00;;
3050;SDS011;1535;51.098;6.414;2023-10-13T14:06:42;14.40;;;13.90;;
3050;SDS011;1535;51.098;6.414;2023-10-13T14:09:10;14.60;;;14.10;;
3050;SDS011;1535;51.098;6.414;2023-10-13T14:11:41;14.30;;;13.80;;
3050;SDS011;1535;51.098;6.414;2023-10-13T14:14:27;14.37;;;13.87;;
3050;SDS011;1535;51.098;6.414;2023-10-13T14:16:58;14.37;;;13.87;;
3050;SDS011;1535;51.098;6.414;2023-10-13T14:19:32;14.20;;;13.70;;
3050;SDS011;1535;51.098;6.414;2023-10-13T14:22:00;14.23;;;13.73;;
3050;SDS011;1535;51.098;6.414;2023-10-13T14:24:32;14.20;;;13.70;;
3050;SDS011;1535;51.098;6.414;2023-10-13T14:27:01;14.20;;;13.70;;
3050;SDS011;1535;51.098;6.414;2023-10-13T14:29:35;14.40;;;13.90;;
3050;SDS011;1535;51.098;6.414;2023-10-13T14:32:06;14.30;;;13.80;;
3050;SDS011;1535;51.098;6.414;2023-10-13T14:34:37;14.30;;;13.80;;
3050;SDS011;1535;51.098;6.414;2023-10-13T14:37:05;14.20;;;13.70;;
3050;SDS011;1535;51.098;6.414;2023-10-13T14:39:33;13.93;;;13.50;;
3050;SDS011;1535;51.098;6.414;2023-10-13T14:42:02;13.50;;;13.10;;
3050;SDS011;1535;51.098;6.414;2023-10-13T14:44:30;13.90;;;13.50;;
3050;SDS011;1535;51.098;6.414;2023-10-13T14:46:59;13.70;;;13.30;;
3050;SDS011;1535;51.098;6.414;2023-10-13T14:49:26;13.70;;;13.30;;
3050;SDS011;1535;51.098;6.414;2023-10-13T14:51:53;13.97;;;13.57;;
3050;SDS011;1535;51.098;6.414;2023-10-13T14:54:21;13.50;;;13.10;;
3050;SDS011;1535;51.098;6.414;2023-10-13T14:56:58;13.70;;;13.30;;
3050;SDS011;1535;51.098;6.414;2023-10-13T14:59:25;13.53;;;13.13;;
3050;SDS011;1535;51.098;6.414;2023-10-13T15:01:59;13.50;;;13.10;;
3050;SDS011;1535;51.098;6.414;2023-10-13T15:04:29;13.80;;;13.40;;
3050;SDS011;1535;51.098;6.414;2023-10-13T15:06:58;13.60;;;13.20;;
3050;SDS011;1535;51.098;6.414;2023-10-13T15:09:26;13.20;;;12.80;;
3050;SDS011;1535;51.098;6.414;2023-10-13T15:11:53;13.30;;;12.90;;
3050;SDS011;1535;51.098;6.414;2023-10-13T15:14:20;13.50;;;13.10;;
3050;SDS011;1535;51.098;6.414;2023-10-13T15:16:48;13.80;;;13.40;;
3050;SDS011;1535;51.098;6.414;2023-10-13T15:19:18;13.90;;;13.50;;
3050;SDS011;1535;51.098;6.414;2023-10-13T15:21:45;13.63;;;13.23;;
3050;SDS011;1535;51.098;6.414;2023-10-13T15:24:15;13.80;;;13.40;;
3050;SDS011;1535;51.098;6.414;2023-10-13T15:26:46;13.97;;;13.50;;
3050;SDS011;1535;51.098;6.414;2023-10-13T15:29:14;13.83;;;13.43;;
3050;SDS011;1535;51.098;6.414;2023-10-13T15:31:44;13.70;;;13.30;;
3050;SDS011;1535;51.098;6.414;2023-10-13T15:34:31;13.30;;;12.90;;
3050;SDS011;1535;51.098;6.414;2023-10-13T15:36:58;13.40;;;13.00;;